sensor_id;sensor_type;location;lat;lon;timestamp;pressure;altitude;pressure_sealevel;temperature;humidity
44934;BME280;30667;43.614;1.442;2023-06-14T00:02:10;99531.38;;;17.82;100.00
44934;BME280;30667;43.614;1.442;2023-06-14T00:04:36;99531.03;;;17.83;100.00
44934;BME280;30667;43.614;1.442;2023-06-14T00:07:04;99530.00;;;17.75;100.00
44934;BME280;30667;43.614;1.442;2023-06-14T00:09:30;99535.38;;;17.84;100.00
44934;BME280;30667;43.614;1.442;2023-06-14T00:11:55;99534.56;;;17.71;100.00
44934;BME280;30667;43.614;1.442;2023-06-14T00:14:20;99540.38;;;17.82;100.00
44934;BME280;30667;43.614;1.442;2023-06-14T00:16:46;99536.31;;;17.88;100.00
44934;BME280;30667;43.614;1.442;2023-06-14T00:19:13;99525.91;;;17.82;100.00
44934;BME280;30667;43.614;1.442;2023-06-14T00:21:38;99523.84;;;17.78;100.00
44934;BME280;30667;43.614;1.442;2023-06-14T00:24:04;99529.09;;;17.84;100.00
44934;BME280;30667;43.614;1.442;2023-06-14T00:26:30;99514.09;;;17.90;100.00
44934;BME280;30667;43.614;1.442;2023-06-14T00:28:56;99521.94;;;17.79;100.00
44934;BME280;30667;43.614;1.442;2023-06-14T00:31:22;99508.09;;;17.75;100.00
44934;BME280;30667;43.614;1.442;2023-06-14T00:33:48;99501.97;;;17.78;100.00
44934;BME280;30667;43.614;1.442;2023-06-14T00:36:13;99499.22;;;17.78;100.00
44934;BME280;30667;43.614;1.442;2023-06-14T00:38:39;99503.97;;;17.90;100.00
44934;BME280;30667;43.614;1.442;2023-06-14T00:41:04;99504.03;;;17.82;100.00
44934;BME280;30667;43.614;1.442;2023-06-14T00:43:30;99509.59;;;17.85;100.00
44934;BME280;30667;43.614;1.442;2023-06-14T00:45:56;99505.84;;;17.77;100.00
44934;BME280;30667;43.614;1.442;2023-06-14T00:48:22;99522.50;;;17.85;100.00
44934;BME280;30667;43.614;1.442;2023-06-14T00:50:49;99520.22;;;17.87;100.00
44934;BME280;30667;43.614;1.442;2023-06-14T00:53:16;99523.25;;;17.94;100.00
44934;BME280;30667;43.614;1.442;2023-06-14T00:55:43;99512.81;;;17.87;100.00
44934;BME280;30667;43.614;1.442;2023-06-14T00:58:09;99513.66;;;17.88;100.00
44934;BME280;30667;43.614;1.442;2023-06-14T01:00:35;99515.56;;;17.87;100.00
44934;BME280;30667;43.614;1.442;2023-06-14T01:03:01;99504.31;;;17.89;100.00
44934;BME280;30667;43.614;1.442;2023-06-14T01:05:28;99505.88;;;17.90;100.00
44934;BME280;30667;43.614;1.442;2023-06-14T01:10:53;99508.88;;;17.97;100.00
44934;BME280;30667;43.614;1.442;2023-06-14T01:13:45;99513.44;;;18.05;100.00
44934;BME280;30667;43.614;1.442;2023-06-14T01:16:11;99519.00;;;17.96;100.00
44934;BME280;30667;43.614;1.442;2023-06-14T01:18:37;99513.06;;;17.94;100.00
44934;BME280;30667;43.614;1.442;2023-06-14T01:21:03;99518.13;;;18.05;100.00
44934;BME280;30667;43.614;1.442;2023-06-14T01:23:32;99514.25;;;18.06;100.00
44934;BME280;30667;43.614;1.442;2023-06-14T01:25:59;99518.00;;;18.01;100.00
44934;BME280;30667;43.614;1.442;2023-06-14T01:28:26;99517.53;;;17.99;100.00
44934;BME280;30667;43.614;1.442;2023-06-14T01:31:00;99516.28;;;18.09;100.00
44934;BME280;30667;43.614;1.442;2023-06-14T01:33:29;99522.94;;;18.08;100.00
44934;BME280;30667;43.614;1.442;2023-06-14T01:35:56;99523.72;;;18.08;100.00
44934;BME280;30667;43.614;1.442;2023-06-14T01:38:25;99522.69;;;18.13;100.00
44934;BME280;30667;43.614;1.442;2023-06-14T01:40:53;99524.63;;;18.12;100.00
44934;BME280;30667;43.614;1.442;2023-06-14T01:43:20;99523.03;;;18.11;100.00
44934;BME280;30667;43.614;1.442;2023-06-14T01:45:51;99522.78;;;18.04;100.00
44934;BME280;30667;43.614;1.442;2023-06-14T01:48:19;99512.31;;;18.06;100.00
44934;BME280;30667;43.614;1.442;2023-06-14T01:50:45;99514.16;;;18.14;100.00
44934;BME280;30667;43.614;1.442;2023-06-14T01:53:10;99513.56;;;18.09;100.00
44934;BME280;30667;43.614;1.442;2023-06-14T01:55:36;99501.81;;;18.08;100.00
44934;BME280;30667;43.614;1.442;2023-06-14T01:58:08;99508.91;;;18.09;100.00
44934;BME280;30667;43.614;1.442;2023-06-14T02:00:34;99510.47;;;18.10;100.00
44934;BME280;30667;43.614;1.442;2023-06-14T02:03:00;99511.63;;;18.09;100.00
44934;BME280;30667;43.614;1.442;2023-06-14T02:05:26;99512.44;;;18.10;100.00
44934;BME280;30667;43.614;1.442;2023-06-14T02:07:52;99509.91;;;18.05;100.00
44934;BME280;30667;43.614;1.442;2023-06-14T02:10:18;99510.94;;;18.00;100.00
44934;BME280;30667;43.614;1.442;2023-06-14T02:12:47;99499.41;;;18.07;100.00
44934;BME280;30667;43.614;1.442;2023-06-14T02:15:13;99504.78;;;18.15;100.00
44934;BME280;30667;43.614;1.442;2023-06-14T02:17:46;99509.59;;;18.06;100.00
44934;BME280;30667;43.614;1.442;2023-06-14T02:20:15;99501.03;;;18.08;100.00
44934;BME280;30667;43.614;1.442;2023-06-14T02:22:41;99503.41;;;17.97;100.00
44934;BME280;30667;43.614;1.442;2023-06-14T02:28:42;99507.72;;;17.98;100.00
44934;BME280;30667;43.614;1.442;2023-06-14T02:31:41;99506.69;;;18.03;100.00
44934;BME280;30667;43.614;1.442;2023-06-14T02:34:06;99509.66;;;17.97;100.00
44934;BME280;30667;43.614;1.442;2023-06-14T02:36:34;99499.06;;;17.96;100.00
44934;BME280;30667;43.614;1.442;2023-06-14T02:39:00;99501.00;;;17.95;100.00
44934;BME280;30667;43.614;1.442;2023-06-14T02:41:26;99502.47;;;17.93;100.00
44934;BME280;30667;43.614;1.442;2023-06-14T02:43:53;99499.72;;;17.93;100.00
44934;BME280;30667;43.614;1.442;2023-06-14T02:46:18;99495.53;;;17.95;100.00
44934;BME280;30667;43.614;1.442;2023-06-14T02:48:44;99502.13;;;17.94;100.00
44934;BME280;30667;43.614;1.442;2023-06-14T02:51:10;99502.03;;;17.91;100.00
44934;BME280;30667;43.614;1.442;2023-06-14T02:53:36;99505.22;;;17.93;100.00
44934;BME280;30667;43.614;1.442;2023-06-14T02:56:02;99499.72;;;17.93;100.00
44934;BME280;30667;43.614;1.442;2023-06-14T02:58:29;99506.38;;;17.92;100.00
44934;BME280;30667;43.614;1.442;2023-06-14T03:00:55;99507.84;;;17.89;100.00
44934;BME280;30667;43.614;1.442;2023-06-14T03:03:20;99499.81;;;17.84;100.00
44934;BME280;30667;43.614;1.442;2023-06-14T03:05:47;99508.16;;;17.88;100.00
44934;BME280;30667;43.614;1.442;2023-06-14T03:08:15;99500.59;;;17.85;100.00
44934;BME280;30667;43.614;1.442;2023-06-14T03:10:48;99497.31;;;17.79;100.00
44934;BME280;30667;43.614;1.442;2023-06-14T03:13:14;99505.28;;;17.84;100.00
44934;BME280;30667;43.614;1.442;2023-06-14T03:15:42;99506.41;;;17.83;100.00
44934;BME280;30667;43.614;1.442;2023-06-14T03:18:10;99503.13;;;17.77;100.00
44934;BME280;30667;43.614;1.442;2023-06-14T03:20:40;99503.13;;;17.77;100.00
44934;BME280;30667;43.614;1.442;2023-06-14T03:23:06;99503.19;;;17.69;100.00
44934;BME280;30667;43.614;1.442;2023-06-14T03:25:32;99508.31;;;17.70;100.00
44934;BME280;30667;43.614;1.442;2023-06-14T03:28:06;99508.00;;;17.72;100.00
44934;BME280;30667;43.614;1.442;2023-06-14T03:30:31;99513.78;;;17.70;100.00
44934;BME280;30667;43.614;1.442;2023-06-14T03:32:57;99520.41;;;17.69;100.00
44934;BME280;30667;43.614;1.442;2023-06-14T03:35:23;99515.88;;;17.73;100.00
44934;BME280;30667;43.614;1.442;2023-06-14T03:37:49;99520.06;;;17.71;100.00
44934;BME280;30667;43.614;1.442;2023-06-14T03:40:18;99514.47;;;17.67;100.00
44934;BME280;30667;43.614;1.442;2023-06-14T03:42:43;99516.75;;;17.65;100.00
44934;BME280;30667;43.614;1.442;2023-06-14T03:45:09;99511.63;;;17.64;100.00
44934;BME280;30667;43.614;1.442;2023-06-14T03:47:35;99517.88;;;17.64;100.00
44934;BME280;30667;43.614;1.442;2023-06-14T03:50:02;99523.00;;;17.66;100.00
44934;BME280;30667;43.614;1.442;2023-06-14T03:52:28;99518.56;;;17.61;100.00
44934;BME280;30667;43.614;1.442;2023-06-14T03:54:53;99529.75;;;17.68;100.00
44934;BME280;30667;43.614;1.442;2023-06-14T03:57:19;99536.69;;;17.66;100.00
44934;BME280;30667;43.614;1.442;2023-06-14T03:59:47;99531.56;;;17.64;100.00
44934;BME280;30667;43.614;1.442;2023-06-14T04:02:13;99528.03;;;17.64;100.00
44934;BME280;30667;43.614;1.442;2023-06-14T04:04:43;99534.56;;;17.71;100.00
44934;BME280;30667;43.614;1.442;2023-06-14T04:07:12;99533.41;;;17.72;100.00
44934;BME280;30667;43.614;1.442;2023-06-14T04:09:39;99537.06;;;17.76;100.00
44934;BME280;30667;43.614;1.442;2023-06-14T04:12:05;99541.59;;;17.72;100.00
44934;BME280;30667;43.614;1.442;2023-06-14T04:14:31;99539.34;;;17.74;100.00
44934;BME280;30667;43.614;1.442;2023-06-14T04:16:58;99543.22;;;17.73;100.00
44934;BME280;30667;43.614;1.442;2023-06-14T04:19:24;99543.69;;;17.75;100.00
44934;BME280;30667;43.614;1.442;2023-06-14T04:21:50;99545.28;;;17.76;100.00
44934;BME280;30667;43.614;1.442;2023-06-14T04:24:16;99551.22;;;17.78;100.00
44934;BME280;30667;43.614;1.442;2023-06-14T04:26:43;99555.44;;;17.76;100.00
44934;BME280;30667;43.614;1.442;2023-06-14T04:29:14;99553.03;;;17.74;100.00
44934;BME280;30667;43.614;1.442;2023-06-14T04:31:44;99553.84;;;17.75;100.00
44934;BME280;30667;43.614;1.442;2023-06-14T04:34:10;99560.09;;;17.75;100.00
44934;BME280;30667;43.614;1.442;2023-06-14T04:36:41;99554.75;;;17.79;100.00
44934;BME280;30667;43.614;1.442;2023-06-14T04:39:16;99556.69;;;17.78;100.00
44934;BME280;30667;43.614;1.442;2023-06-14T04:41:45;99556.69;;;17.78;100.00
44934;BME280;30667;43.614;1.442;2023-06-14T04:44:12;99560.81;;;17.85;100.00
44934;BME280;30667;43.614;1.442;2023-06-14T04:46:38;99556.00;;;17.82;100.00
44934;BME280;30667;43.614;1.442;2023-06-14T04:49:12;99550.88;;;17.80;100.00
44934;BME280;30667;43.614;1.442;2023-06-14T04:51:43;99553.28;;;17.82;100.00
44934;BME280;30667;43.614;1.442;2023-06-14T04:54:09;99556.34;;;17.80;100.00
44934;BME280;30667;43.614;1.442;2023-06-14T04:56:38;99554.53;;;17.84;100.00
44934;BME280;30667;43.614;1.442;2023-06-14T04:59:03;99565.16;;;17.86;100.00
44934;BME280;30667;43.614;1.442;2023-06-14T05:01:32;99568.16;;;17.93;100.00
44934;BME280;30667;43.614;1.442;2023-06-14T05:03:59;99571.97;;;18.13;100.00
44934;BME280;30667;43.614;1.442;2023-06-14T05:06:24;99562.88;;;18.33;100.00
44934;BME280;30667;43.614;1.442;2023-06-14T05:08:50;99550.56;;;18.40;100.00
44934;BME280;30667;43.614;1.442;2023-06-14T05:11:16;99536.66;;;18.45;100.00
44934;BME280;30667;43.614;1.442;2023-06-14T05:13:45;99541.88;;;18.50;100.00
44934;BME280;30667;43.614;1.442;2023-06-14T05:16:12;99540.16;;;18.45;100.00
44934;BME280;30667;43.614;1.442;2023-06-14T05:18:37;99545.88;;;18.40;100.00
44934;BME280;30667;43.614;1.442;2023-06-14T05:21:03;99550.91;;;18.50;100.00
44934;BME280;30667;43.614;1.442;2023-06-14T05:23:32;99553.63;;;18.50;100.00
44934;BME280;30667;43.614;1.442;2023-06-14T05:25:57;99548.28;;;18.54;100.00
44934;BME280;30667;43.614;1.442;2023-06-14T05:28:23;99552.38;;;18.60;100.00
44934;BME280;30667;43.614;1.442;2023-06-14T05:30:49;99556.16;;;18.56;100.00
44934;BME280;30667;43.614;1.442;2023-06-14T05:33:15;99557.66;;;18.65;100.00
44934;BME280;30667;43.614;1.442;2023-06-14T05:35:40;99567.78;;;18.65;100.00
44934;BME280;30667;43.614;1.442;2023-06-14T05:38:05;99562.44;;;18.56;100.00
44934;BME280;30667;43.614;1.442;2023-06-14T05:40:32;99567.00;;;18.64;100.00
44934;BME280;30667;43.614;1.442;2023-06-14T05:42:58;99574.88;;;18.54;100.00
44934;BME280;30667;43.614;1.442;2023-06-14T05:45:23;99575.00;;;18.57;100.00
44934;BME280;30667;43.614;1.442;2023-06-14T05:47:49;99569.97;;;18.59;100.00
44934;BME280;30667;43.614;1.442;2023-06-14T05:50:15;99574.53;;;18.55;100.00
44934;BME280;30667;43.614;1.442;2023-06-14T05:52:41;99581.38;;;18.61;100.00
44934;BME280;30667;43.614;1.442;2023-06-14T05:55:06;99584.72;;;18.67;100.00
44934;BME280;30667;43.614;1.442;2023-06-14T05:57:32;99586.19;;;18.77;100.00
44934;BME280;30667;43.614;1.442;2023-06-14T05:59:57;99585.75;;;18.87;100.00
44934;BME280;30667;43.614;1.442;2023-06-14T06:02:23;99582.06;;;18.83;100.00
44934;BME280;30667;43.614;1.442;2023-06-14T06:04:48;99587.34;;;18.88;100.00
44934;BME280;30667;43.614;1.442;2023-06-14T06:07:13;99589.16;;;18.84;100.00
44934;BME280;30667;43.614;1.442;2023-06-14T06:09:39;99602.53;;;18.73;100.00
44934;BME280;30667;43.614;1.442;2023-06-14T06:12:06;99606.41;;;18.72;100.00
44934;BME280;30667;43.614;1.442;2023-06-14T06:14:32;99601.72;;;18.73;100.00
44934;BME280;30667;43.614;1.442;2023-06-14T06:16:57;99608.59;;;18.91;100.00
44934;BME280;30667;43.614;1.442;2023-06-14T06:19:23;99610.66;;;18.94;100.00
44934;BME280;30667;43.614;1.442;2023-06-14T06:21:48;99602.63;;;19.01;100.00
44934;BME280;30667;43.614;1.442;2023-06-14T06:24:13;99608.34;;;18.72;100.00
44934;BME280;30667;43.614;1.442;2023-06-14T06:26:39;99628.41;;;18.63;100.00
44934;BME280;30667;43.614;1.442;2023-06-14T06:29:05;99626.59;;;18.55;100.00
44934;BME280;30667;43.614;1.442;2023-06-14T06:31:31;99622.69;;;18.44;100.00
44934;BME280;30667;43.614;1.442;2023-06-14T06:33:56;99621.44;;;18.54;100.00
44934;BME280;30667;43.614;1.442;2023-06-14T06:36:22;99636.31;;;18.52;100.00
44934;BME280;30667;43.614;1.442;2023-06-14T06:38:48;99642.22;;;18.55;100.00
44934;BME280;30667;43.614;1.442;2023-06-14T06:41:13;99655.00;;;18.50;100.00
44934;BME280;30667;43.614;1.442;2023-06-14T06:43:38;99663.22;;;18.50;100.00
44934;BME280;30667;43.614;1.442;2023-06-14T06:46:04;99657.97;;;18.45;100.00
44934;BME280;30667;43.614;1.442;2023-06-14T06:48:30;99665.28;;;18.54;100.00
44934;BME280;30667;43.614;1.442;2023-06-14T06:50:56;99669.38;;;18.47;100.00
44934;BME280;30667;43.614;1.442;2023-06-14T06:53:21;99672.38;;;18.55;100.00
44934;BME280;30667;43.614;1.442;2023-06-14T06:55:47;99677.72;;;18.51;100.00
44934;BME280;30667;43.614;1.442;2023-06-14T06:58:13;99673.03;;;18.51;100.00
44934;BME280;30667;43.614;1.442;2023-06-14T07:00:38;99677.06;;;18.54;100.00
44934;BME280;30667;43.614;1.442;2023-06-14T07:03:05;99683.66;;;18.53;100.00
44934;BME280;30667;43.614;1.442;2023-06-14T07:05:30;99685.38;;;18.58;100.00
44934;BME280;30667;43.614;1.442;2023-06-14T07:07:56;99683.44;;;18.58;100.00
44934;BME280;30667;43.614;1.442;2023-06-14T07:10:22;99688.91;;;18.58;100.00
44934;BME280;30667;43.614;1.442;2023-06-14T07:12:47;99689.50;;;18.64;100.00
44934;BME280;30667;43.614;1.442;2023-06-14T07:15:12;99690.75;;;18.66;100.00
44934;BME280;30667;43.614;1.442;2023-06-14T07:17:38;99698.06;;;18.62;100.00
44934;BME280;30667;43.614;1.442;2023-06-14T07:20:04;99700.47;;;18.64;100.00
44934;BME280;30667;43.614;1.442;2023-06-14T07:22:42;99703.56;;;18.62;100.00
44934;BME280;30667;43.614;1.442;2023-06-14T07:25:12;99708.56;;;18.60;100.00
44934;BME280;30667;43.614;1.442;2023-06-14T07:27:42;99705.13;;;18.63;100.00
44934;BME280;30667;43.614;1.442;2023-06-14T07:30:09;99710.28;;;18.65;100.00
44934;BME280;30667;43.614;1.442;2023-06-14T07:32:35;99709.47;;;18.64;100.00
44934;BME280;30667;43.614;1.442;2023-06-14T07:35:01;99704.47;;;18.66;100.00
44934;BME280;30667;43.614;1.442;2023-06-14T07:37:26;99712.16;;;18.73;100.00
44934;BME280;30667;43.614;1.442;2023-06-14T07:39:51;99709.94;;;18.66;100.00
44934;BME280;30667;43.614;1.442;2023-06-14T07:42:17;99708.03;;;18.67;100.00
44934;BME280;30667;43.614;1.442;2023-06-14T07:44:42;99712.00;;;18.69;100.00
44934;BME280;30667;43.614;1.442;2023-06-14T07:47:08;99715.22;;;18.72;100.00
44934;BME280;30667;43.614;1.442;2023-06-14T07:49:33;99714.88;;;18.73;100.00
44934;BME280;30667;43.614;1.442;2023-06-14T07:51:58;99723.09;;;18.73;100.00
44934;BME280;30667;43.614;1.442;2023-06-14T07:54:24;99718.88;;;18.76;100.00
44934;BME280;30667;43.614;1.442;2023-06-14T07:56:51;99713.50;;;18.79;100.00
44934;BME280;30667;43.614;1.442;2023-06-14T07:59:17;99722.34;;;18.85;100.00
44934;BME280;30667;43.614;1.442;2023-06-14T08:01:42;99724.28;;;18.84;100.00
44934;BME280;30667;43.614;1.442;2023-06-14T08:04:12;99725.09;;;18.85;100.00
44934;BME280;30667;43.614;1.442;2023-06-14T08:06:38;99720.06;;;18.87;100.00
44934;BME280;30667;43.614;1.442;2023-06-14T08:09:04;99723.72;;;18.91;100.00
44934;BME280;30667;43.614;1.442;2023-06-14T08:11:30;99723.16;;;18.98;100.00
44934;BME280;30667;43.614;1.442;2023-06-14T08:13:55;99723.28;;;19.01;100.00
44934;BME280;30667;43.614;1.442;2023-06-14T08:16:21;99724.19;;;19.05;100.00
44934;BME280;30667;43.614;1.442;2023-06-14T08:18:46;99725.56;;;19.12;100.00
44934;BME280;30667;43.614;1.442;2023-06-14T08:21:12;99726.25;;;19.21;100.00
44934;BME280;30667;43.614;1.442;2023-06-14T08:23:40;99736.44;;;19.33;100.00
44934;BME280;30667;43.614;1.442;2023-06-14T08:26:06;99725.91;;;19.35;100.00
44934;BME280;30667;43.614;1.442;2023-06-14T08:28:31;99730.69;;;19.38;100.00
44934;BME280;30667;43.614;1.442;2023-06-14T08:30:56;99722.94;;;19.28;100.00
44934;BME280;30667;43.614;1.442;2023-06-14T08:33:22;99725.91;;;19.35;100.00
44934;BME280;30667;43.614;1.442;2023-06-14T08:35:47;99732.75;;;19.41;100.00
44934;BME280;30667;43.614;1.442;2023-06-14T08:38:13;99727.63;;;19.39;100.00
44934;BME280;30667;43.614;1.442;2023-06-14T08:40:39;99724.97;;;19.43;100.00
44934;BME280;30667;43.614;1.442;2023-06-14T08:43:05;99725.44;;;19.45;100.00
44934;BME280;30667;43.614;1.442;2023-06-14T08:45:30;99720.16;;;19.52;100.00
44934;BME280;30667;43.614;1.442;2023-06-14T08:47:56;99723.25;;;19.51;100.00
44934;BME280;30667;43.614;1.442;2023-06-14T08:50:25;99726.25;;;19.58;100.00
44934;BME280;30667;43.614;1.442;2023-06-14T08:52:54;99733.72;;;19.73;100.00
44934;BME280;30667;43.614;1.442;2023-06-14T08:55:21;99730.81;;;19.78;100.00
44934;BME280;30667;43.614;1.442;2023-06-14T08:57:51;99726.09;;;19.79;100.00
44934;BME280;30667;43.614;1.442;2023-06-14T09:00:19;99732.03;;;19.81;100.00
44934;BME280;30667;43.614;1.442;2023-06-14T09:02:46;99737.28;;;19.86;100.00
44934;BME280;30667;43.614;1.442;2023-06-14T09:05:12;99738.53;;;19.89;100.00
44934;BME280;30667;43.614;1.442;2023-06-14T09:07:40;99729.97;;;19.90;100.00
44934;BME280;30667;43.614;1.442;2023-06-14T09:10:08;99729.41;;;19.85;100.00
44934;BME280;30667;43.614;1.442;2023-06-14T09:12:35;99734.66;;;19.90;100.00
44934;BME280;30667;43.614;1.442;2023-06-14T09:15:00;99730.53;;;19.96;100.00
44934;BME280;30667;43.614;1.442;2023-06-14T09:17:32;99730.88;;;19.94;100.00
44934;BME280;30667;43.614;1.442;2023-06-14T09:20:00;99734.59;;;20.02;100.00
44934;BME280;30667;43.614;1.442;2023-06-14T09:22:29;99738.59;;;20.17;100.00
44934;BME280;30667;43.614;1.442;2023-06-14T09:24:55;99736.63;;;20.18;100.00
44934;BME280;30667;43.614;1.442;2023-06-14T09:27:20;99742.69;;;20.23;100.00
44934;BME280;30667;43.614;1.442;2023-06-14T09:29:45;99748.97;;;20.24;100.00
44934;BME280;30667;43.614;1.442;2023-06-14T09:32:11;99738.88;;;20.28;100.00
44934;BME280;30667;43.614;1.442;2023-06-14T09:34:37;99745.53;;;20.27;100.00
44934;BME280;30667;43.614;1.442;2023-06-14T09:37:02;99738.63;;;20.33;100.00
44934;BME280;30667;43.614;1.442;2023-06-14T09:39:27;99744.91;;;20.33;100.00
44934;BME280;30667;43.614;1.442;2023-06-14T09:41:53;99740.13;;;20.30;100.00
44934;BME280;30667;43.614;1.442;2023-06-14T09:44:19;99748.72;;;20.29;100.00
44934;BME280;30667;43.614;1.442;2023-06-14T09:46:45;99746.06;;;20.32;100.00
44934;BME280;30667;43.614;1.442;2023-06-14T09:49:11;99746.75;;;20.29;100.00
44934;BME280;30667;43.614;1.442;2023-06-14T09:51:43;99748.06;;;20.48;100.00
44934;BME280;30667;43.614;1.442;2023-06-14T09:54:15;99751.44;;;20.57;100.00
44934;BME280;30667;43.614;1.442;2023-06-14T09:56:47;99744.34;;;20.56;100.00
44934;BME280;30667;43.614;1.442;2023-06-14T09:59:16;99746.81;;;20.61;100.00
44934;BME280;30667;43.614;1.442;2023-06-14T10:01:44;99750.25;;;20.71;100.00
44934;BME280;30667;43.614;1.442;2023-06-14T10:04:13;99749.09;;;20.72;100.00
44934;BME280;30667;43.614;1.442;2023-06-14T10:06:43;99742.13;;;20.74;100.00
44934;BME280;30667;43.614;1.442;2023-06-14T10:09:10;99751.94;;;20.75;100.00
44934;BME280;30667;43.614;1.442;2023-06-14T10:11:36;99743.00;;;20.78;100.00
44934;BME280;30667;43.614;1.442;2023-06-14T10:14:05;99745.13;;;20.85;100.00
44934;BME280;30667;43.614;1.442;2023-06-14T10:16:32;99742.28;;;20.97;100.00
44934;BME280;30667;43.614;1.442;2023-06-14T10:22:09;99738.28;;;20.95;100.00
44934;BME280;30667;43.614;1.442;2023-06-14T10:24:43;99735.91;;;20.93;100.00
44934;BME280;30667;43.614;1.442;2023-06-14T10:27:09;99740.81;;;21.00;100.00
44934;BME280;30667;43.614;1.442;2023-06-14T10:32:25;99739.00;;;21.23;100.00
44934;BME280;30667;43.614;1.442;2023-06-14T10:35:00;99739.34;;;21.22;100.00
44934;BME280;30667;43.614;1.442;2023-06-14T10:37:27;99733.50;;;21.23;100.00
44934;BME280;30667;43.614;1.442;2023-06-14T10:39:52;99736.78;;;21.29;100.00
44934;BME280;30667;43.614;1.442;2023-06-14T10:42:19;99741.91;;;21.47;100.00
44934;BME280;30667;43.614;1.442;2023-06-14T10:47:20;99730.56;;;21.48;100.00
44934;BME280;30667;43.614;1.442;2023-06-14T10:50:08;99734.94;;;21.49;100.00
44934;BME280;30667;43.614;1.442;2023-06-14T10:52:38;99739.34;;;21.54;100.00
44934;BME280;30667;43.614;1.442;2023-06-14T11:00:06;99739.16;;;21.47;100.00
44934;BME280;30667;43.614;1.442;2023-06-14T11:05:14;99730.28;;;21.53;100.00
44934;BME280;30667;43.614;1.442;2023-06-14T11:07:44;99723.91;;;21.49;100.00
44934;BME280;30667;43.614;1.442;2023-06-14T11:10:35;99730.22;;;21.50;100.00
44934;BME280;30667;43.614;1.442;2023-06-14T11:13:02;99730.47;;;21.61;100.00
44934;BME280;30667;43.614;1.442;2023-06-14T11:15:31;99727.78;;;21.64;100.00
44934;BME280;30667;43.614;1.442;2023-06-14T11:17:57;99734.06;;;21.65;100.00
44934;BME280;30667;43.614;1.442;2023-06-14T11:20:27;99729.16;;;21.74;100.00
44934;BME280;30667;43.614;1.442;2023-06-14T11:22:53;99728.13;;;21.63;100.00
44934;BME280;30667;43.614;1.442;2023-06-14T11:25:18;99727.31;;;21.78;100.00
44934;BME280;30667;43.614;1.442;2023-06-14T11:27:44;99735.78;;;21.89;100.00
44934;BME280;30667;43.614;1.442;2023-06-14T11:30:11;99735.69;;;21.85;100.00
44934;BME280;30667;43.614;1.442;2023-06-14T11:32:37;99733.03;;;21.89;100.00
44934;BME280;30667;43.614;1.442;2023-06-14T11:35:04;99732.41;;;21.95;100.00
44934;BME280;30667;43.614;1.442;2023-06-14T11:37:32;99729.28;;;21.97;100.00
44934;BME280;30667;43.614;1.442;2023-06-14T11:40:03;99733.97;;;21.97;100.00
44934;BME280;30667;43.614;1.442;2023-06-14T11:42:33;99731.22;;;22.16;100.00
44934;BME280;30667;43.614;1.442;2023-06-14T11:44:58;99727.09;;;22.26;100.00
44934;BME280;30667;43.614;1.442;2023-06-14T11:47:23;99736.66;;;22.32;100.00
44934;BME280;30667;43.614;1.442;2023-06-14T11:49:49;99735.31;;;22.42;100.00
44934;BME280;30667;43.614;1.442;2023-06-14T11:52:15;99735.22;;;22.38;100.00
44934;BME280;30667;43.614;1.442;2023-06-14T11:54:40;99732.19;;;22.43;100.00
44934;BME280;30667;43.614;1.442;2023-06-14T11:57:07;99729.84;;;22.45;100.00
44934;BME280;30667;43.614;1.442;2023-06-14T11:59:38;99731.81;;;22.45;100.00
44934;BME280;30667;43.614;1.442;2023-06-14T12:02:04;99726.22;;;22.41;100.00
44934;BME280;30667;43.614;1.442;2023-06-14T12:04:29;99719.97;;;22.25;100.00
44934;BME280;30667;43.614;1.442;2023-06-14T12:06:55;99722.38;;;22.46;100.00
44934;BME280;30667;43.614;1.442;2023-06-14T12:09:23;99725.53;;;22.67;100.00
44934;BME280;30667;43.614;1.442;2023-06-14T12:11:49;99727.19;;;22.72;100.00
44934;BME280;30667;43.614;1.442;2023-06-14T12:14:15;99720.50;;;22.50;100.00
44934;BME280;30667;43.614;1.442;2023-06-14T12:16:42;99719.34;;;22.31;100.00
44934;BME280;30667;43.614;1.442;2023-06-14T12:19:26;99725.28;;;22.53;100.00
44934;BME280;30667;43.614;1.442;2023-06-14T12:21:52;99734.28;;;22.50;100.00
44934;BME280;30667;43.614;1.442;2023-06-14T12:24:17;99736.25;;;22.30;100.00
44934;BME280;30667;43.614;1.442;2023-06-14T12:26:43;99735.84;;;22.51;100.00
44934;BME280;30667;43.614;1.442;2023-06-14T12:29:08;99737.47;;;22.52;100.00
44934;BME280;30667;43.614;1.442;2023-06-14T12:31:34;99739.50;;;22.55;100.00
44934;BME280;30667;43.614;1.442;2023-06-14T12:33:59;99728.88;;;22.57;100.00
44934;BME280;30667;43.614;1.442;2023-06-14T12:36:25;99729.09;;;22.68;100.00
44934;BME280;30667;43.614;1.442;2023-06-14T12:38:51;99728.78;;;22.73;100.00
44934;BME280;30667;43.614;1.442;2023-06-14T12:41:19;99736.63;;;22.71;100.00
44934;BME280;30667;43.614;1.442;2023-06-14T12:43:46;99734.59;;;22.68;100.00
44934;BME280;30667;43.614;1.442;2023-06-14T12:46:12;99733.34;;;22.65;100.00
44934;BME280;30667;43.614;1.442;2023-06-14T12:48:37;99732.25;;;22.70;100.00
44934;BME280;30667;43.614;1.442;2023-06-14T12:51:03;99730.06;;;22.79;100.00
44934;BME280;30667;43.614;1.442;2023-06-14T12:53:28;99730.00;;;22.76;100.00
44934;BME280;30667;43.614;1.442;2023-06-14T12:55:53;99729.69;;;22.81;100.00
44934;BME280;30667;43.614;1.442;2023-06-14T12:58:19;99733.91;;;22.75;100.00
44934;BME280;30667;43.614;1.442;2023-06-14T13:00:45;99724.75;;;22.90;100.00
44934;BME280;30667;43.614;1.442;2023-06-14T13:03:11;99716.56;;;22.97;100.00
44934;BME280;30667;43.614;1.442;2023-06-14T13:05:36;99732.47;;;23.04;100.00
44934;BME280;30667;43.614;1.442;2023-06-14T13:08:02;99734.84;;;23.06;100.00
44934;BME280;30667;43.614;1.442;2023-06-14T13:10:28;99726.84;;;22.74;100.00
44934;BME280;30667;43.614;1.442;2023-06-14T13:12:53;99715.41;;;22.98;100.00